Time;durP1;ratioP1;P1;durP2;ratioP2;P2;SDS_P1;SDS_P2;PMS_P1;PMS_P2;Temp;Humidity;BMP_temperature;BMP_pressure;BME280_temperature;BME280_humidity;BME280_pressure;Samples;Min_cycle;Max_cycle;Signal;HPM_P1;HPM_P2
2023/03/10 00:01:54;;;;;;;3.05;1.77;;;;;;;9.68;100.00;98170.81;4995413;28;20090;-77
2023/03/10 00:04:20;;;;;;;3.83;2.28;;;;;;;9.68;100.00;98170.81;4995563;28;20133;-81
2023/03/10 00:06:47;;;;;;;4.78;2.38;;;;;;;9.69;100.00;98162.78;4996848;28;20058;-79
2023/03/10 00:09:15;;;;;;;2.33;1.70;;;;;;;9.68;100.00;98161.19;4996740;28;20121;-79
2023/03/10 00:11:41;;;;;;;3.72;1.85;;;;;;;9.72;100.00;98178.03;4996407;28;20490;-79
2023/03/10 00:14:08;;;;;;;3.60;2.17;;;;;;;9.71;100.00;98171.22;4995870;28;20137;-79
2023/03/10 00:16:35;;;;;;;2.88;1.67;;;;;;;9.71;100.00;98178.25;4996220;28;20054;-79
2023/03/10 00:19:01;;;;;;;4.95;2.10;;;;;;;9.69;100.00;98172.44;4996019;28;20118;-79
2023/03/10 00:21:30;;;;;;;3.45;1.67;;;;;;;9.70;100.00;98179.25;4996308;28;20050;-79
2023/03/10 00:23:57;;;;;;;6.13;2.15;;;;;;;9.66;100.00;98173.66;4996092;28;20575;-79
2023/03/10 00:26:28;;;;;;;2.33;2.13;;;;;;;9.65;100.00;98159.00;4996585;28;20046;-81
2023/03/10 00:28:55;;;;;;;2.67;1.73;;;;;;;9.68;100.00;98160.38;4995387;28;20050;-80
2023/03/10 00:31:24;;;;;;;4.35;2.13;;;;;;;9.65;100.00;98162.41;4995620;28;20054;-79
2023/03/10 00:33:51;;;;;;;1.88;1.65;;;;;;;9.66;100.00;98168.44;4995427;28;20142;-79
2023/03/10 00:36:20;;;;;;;3.00;2.08;;;;;;;9.62;100.00;98168.03;4995914;28;20062;-79
2023/03/10 00:38:48;;;;;;;4.07;2.22;;;;;;;9.64;100.00;98173.84;4995432;28;20133;-80
2023/03/10 00:41:17;;;;;;;3.72;2.42;;;;;;;9.63;100.00;98193.13;4997361;28;20062;-78
2023/03/10 00:43:45;;;;;;;4.07;1.80;;;;;;;9.59;100.00;98165.84;4999161;28;20481;-80
2023/03/10 00:46:12;;;;;;;4.25;2.08;;;;;;;9.60;100.00;98172.66;5001305;28;20054;-80
2023/03/10 00:48:39;;;;;;;3.53;2.20;;;;;;;9.61;100.00;98173.47;5002280;28;20078;-79
2023/03/10 00:51:07;;;;;;;5.38;2.22;;;;;;;9.59;100.00;98185.94;5001111;28;20113;-80
2023/03/10 00:53:34;;;;;;;3.65;2.28;;;;;;;9.58;100.00;98182.53;5001569;28;20417;-80
2023/03/10 00:56:04;;;;;;;4.32;1.70;;;;;;;9.55;100.00;98182.94;5002599;28;20057;-80
2023/03/10 00:58:31;;;;;;;4.15;1.35;;;;;;;9.59;100.00;98184.13;5002276;28;20046;-81
2023/03/10 01:01:00;;;;;;;1.75;1.65;;;;;;;9.57;100.00;98186.13;5002302;28;20081;-80
2023/03/10 01:03:28;;;;;;;1.65;1.55;;;;;;;9.58;100.00;98179.09;5002478;28;20538;-79
2023/03/10 01:05:55;;;;;;;2.78;1.85;;;;;;;9.60;100.00;98172.66;5003274;28;20416;-79
2023/03/10 01:08:22;;;;;;;3.60;1.65;;;;;;;9.61;100.00;98170.88;5003071;28;20074;-82
2023/03/10 01:10:49;;;;;;;3.55;2.03;;;;;;;9.62;100.00;98168.03;5004098;28;20085;-80
2023/03/10 01:13:18;;;;;;;1.88;1.60;;;;;;;9.71;100.00;98165.19;5002303;28;20047;-81
2023/03/10 01:15:46;;;;;;;1.60;1.38;;;;;;;9.71;100.00;98175.63;5002303;28;20081;-80
2023/03/10 01:18:15;;;;;;;3.22;1.92;;;;;;;9.70;100.00;98181.88;5000040;28;20046;-81
2023/03/10 01:20:42;;;;;;;1.45;1.30;;;;;;;9.74;100.00;98172.59;4999517;28;20141;-78
2023/03/10 01:23:13;;;;;;;8.23;2.92;;;;;;;9.67;100.00;98161.38;4999641;28;20133;-78
2023/03/10 01:25:44;;;;;;;4.63;1.80;;;;;;;9.70;100.00;98163.59;5002037;28;20042;-79
2023/03/10 01:28:10;;;;;;;2.45;1.35;;;;;;;9.75;100.00;98151.50;5002418;28;20118;-79
2023/03/10 01:30:37;;;;;;;2.05;1.73;;;;;;;9.75;100.00;98153.31;5000437;28;20130;-78
2023/03/10 01:33:04;;;;;;;4.07;1.80;;;;;;;9.74;100.00;98160.34;5002286;28;20092;-79
2023/03/10 01:35:32;;;;;;;2.72;2.00;;;;;;;9.78;100.00;98145.06;5002158;28;20081;-79
2023/03/10 01:37:59;;;;;;;1.67;1.52;;;;;;;9.79;100.00;98139.63;5001349;28;20082;-79
2023/03/10 01:40:26;;;;;;;2.03;1.83;;;;;;;9.86;100.00;98142.19;4998334;28;20101;-79
2023/03/10 01:42:53;;;;;;;2.40;2.20;;;;;;;9.86;100.00;98136.97;4999903;28;20093;-81
2023/03/10 01:45:57;;;;;;;5.82;1.67;;;;;;;9.81;100.00;98139.41;4999514;28;20074;-79
2023/03/10 01:48:23;;;;;;;3.20;1.83;;;;;;;9.80;100.00;98140.44;4991441;28;20053;-80
2023/03/10 01:50:56;;;;;;;1.70;1.27;;;;;;;9.78;100.00;98137.22;4997751;28;20560;-80
2023/03/10 01:53:23;;;;;;;2.17;1.23;;;;;;;9.78;100.00;98132.81;4997622;28;20093;-78
2023/03/10 01:55:54;;;;;;;1.45;1.35;;;;;;;9.77;100.00;98143.47;4998511;28;20160;-81
2023/03/10 01:58:24;;;;;;;2.53;1.70;;;;;;;9.81;100.00;98144.63;4998139;28;20188;-81
2023/03/10 02:00:53;;;;;;;1.90;1.52;;;;;;;9.83;100.00;98145.22;4997431;28;20162;-79
2023/03/10 02:03:22;;;;;;;2.97;1.63;;;;;;;9.85;100.00;98146.63;4990251;28;20141;-81
2023/03/10 02:05:54;;;;;;;1.75;1.27;;;;;;;9.85;100.00;98151.03;4997413;28;20133;-78
2023/03/10 02:08:23;;;;;;;2.88;1.38;;;;;;;9.81;100.00;98152.47;4997363;28;20061;-78
2023/03/10 02:10:51;;;;;;;7.75;1.40;;;;;;;9.82;100.00;98157.47;4997596;28;20133;-78
2023/03/10 02:13:18;;;;;;;1.90;1.52;;;;;;;9.82;100.00;98159.28;4997787;28;20129;-79
2023/03/10 02:15:46;;;;;;;2.65;1.55;;;;;;;9.83;100.00;98153.06;4997580;28;20201;-80
2023/03/10 02:18:14;;;;;;;7.00;2.28;;;;;;;9.87;100.00;98160.25;4997463;28;20051;-79
2023/03/10 02:20:48;;;;;;;3.58;1.92;;;;;;;10.01;100.00;98155.72;4998351;28;20069;-79
2023/03/10 02:23:25;;;;;;;3.90;1.60;;;;;;;10.02;100.00;98152.09;4997986;28;20141;-80
2023/03/10 02:25:55;;;;;;;3.80;1.63;;;;;;;10.13;100.00;98159.25;4998967;28;20050;-80
2023/03/10 02:28:24;;;;;;;3.90;1.92;;;;;;;10.14;100.00;98149.59;4998423;28;20133;-80
2023/03/10 02:30:53;;;;;;;2.63;1.55;;;;;;;10.14;100.00;98152.22;4996706;28;20073;-80
2023/03/10 02:33:23;;;;;;;1.85;1.60;;;;;;;10.20;100.00;98141.75;4989999;28;20137;-77
2023/03/10 02:35:50;;;;;;;3.25;1.60;;;;;;;10.12;100.00;98139.38;4997473;28;20440;-80
2023/03/10 02:38:17;;;;;;;3.00;1.42;;;;;;;10.07;100.00;98130.56;4997236;28;20109;-79
2023/03/10 02:40:46;;;;;;;2.80;1.98;;;;;;;10.02;100.00;98128.59;4997271;28;20093;-80
2023/03/10 02:43:17;;;;;;;2.55;1.73;;;;;;;10.01;100.00;98121.75;4997262;28;20137;-80
2023/03/10 02:45:48;;;;;;;7.28;2.15;;;;;;;9.95;100.00;98136.47;4996985;28;20047;-78
2023/03/10 02:48:20;;;;;;;4.18;1.75;;;;;;;9.90;100.00;98130.31;4998166;28;20100;-80
2023/03/10 02:50:47;;;;;;;5.95;2.28;;;;;;;9.86;100.00;98132.53;4997489;28;20217;-80
2023/03/10 02:53:18;;;;;;;5.53;2.20;;;;;;;9.84;100.00;98139.78;4998227;28;20082;-81
2023/03/10 02:55:44;;;;;;;4.72;2.15;;;;;;;9.87;100.00;98138.56;4998048;28;20141;-80
2023/03/10 02:58:12;;;;;;;6.07;2.08;;;;;;;9.84;100.00;98123.31;4997568;28;20086;-80
2023/03/10 03:00:39;;;;;;;7.53;2.67;;;;;;;9.82;100.00;98131.38;4997791;28;20117;-79
2023/03/10 03:03:07;;;;;;;8.48;4.07;;;;;;;9.77;100.00;98123.38;4997763;28;20078;-78
2023/03/10 03:05:34;;;;;;;5.07;2.67;;;;;;;9.73;100.00;98131.84;4997661;28;20109;-79
2023/03/10 03:08:01;;;;;;;7.18;2.97;;;;;;;9.69;100.00;98128.84;4998444;28;20050;-80
2023/03/10 03:10:28;;;;;;;9.88;3.15;;;;;;;9.69;100.00;98130.66;4997647;28;20109;-79
2023/03/10 03:12:56;;;;;;;6.78;3.28;;;;;;;9.65;100.00;98118.00;4998202;28;20086;-79
2023/03/10 03:15:23;;;;;;;11.32;4.03;;;;;;;9.61;100.00;98116.84;4997996;28;20133;-81
2023/03/10 03:17:50;;;;;;;8.32;3.50;;;;;;;9.63;100.00;98114.00;4997760;28;20078;-81
2023/03/10 03:20:20;;;;;;;10.35;3.55;;;;;;;9.64;100.00;98119.03;4997511;28;20501;-80
2023/03/10 03:22:47;;;;;;;9.35;4.35;;;;;;;9.67;100.00;98104.75;4997808;28;20086;-81
2023/03/10 03:25:16;;;;;;;10.20;3.47;;;;;;;9.64;100.00;98118.22;4997028;28;20104;-79
2023/03/10 03:27:43;;;;;;;10.57;4.22;;;;;;;9.63;100.00;98117.41;4998469;28;20254;-79
2023/03/10 03:30:14;;;;;;;11.20;3.72;;;;;;;9.60;100.00;98128.28;4997299;28;20051;-80
2023/03/10 03:32:41;;;;;;;9.15;2.97;;;;;;;9.60;100.00;98123.06;4997876;28;20047;-81
2023/03/10 03:35:11;;;;;;;7.90;3.45;;;;;;;9.56;100.00;98116.66;4996889;28;20141;-80
2023/03/10 03:37:39;;;;;;;7.85;3.25;;;;;;;9.55;100.00;98122.91;4997014;28;20454;-78
2023/03/10 03:40:12;;;;;;;9.77;3.47;;;;;;;9.56;100.00;98111.44;4996657;28;20084;-79
2023/03/10 03:42:38;;;;;;;6.57;3.08;;;;;;;9.52;100.00;98105.03;4997290;28;20047;-80
2023/03/10 03:45:06;;;;;;;8.38;3.22;;;;;;;9.55;100.00;98109.84;4995990;28;20057;-78
2023/03/10 03:47:33;;;;;;;6.78;3.45;;;;;;;9.54;100.00;98110.06;4990439;28;20133;-80
2023/03/10 03:50:00;;;;;;;10.10;3.35;;;;;;;9.49;100.00;98113.28;4996567;28;20093;-81
2023/03/10 03:52:26;;;;;;;10.52;3.40;;;;;;;9.45;100.00;98106.88;4997232;28;20050;-78
2023/03/10 03:54:54;;;;;;;9.68;3.10;;;;;;;9.38;100.00;98100.94;4997267;28;20082;-79
2023/03/10 03:57:21;;;;;;;6.10;3.05;;;;;;;9.38;100.00;98103.53;5001324;28;20093;-79
2023/03/10 03:59:48;;;;;;;8.98;3.08;;;;;;;9.30;100.00;98093.34;5000687;28;20050;-78
2023/03/10 04:02:14;;;;;;;7.40;3.17;;;;;;;9.32;100.00;98086.09;5000157;28;20090;-78
2023/03/10 04:04:41;;;;;;;10.05;3.17;;;;;;;9.32;100.00;98089.50;5002556;23;20524;-78
2023/03/10 04:07:08;;;;;;;11.38;4.25;;;;;;;9.29;100.00;98083.91;4975510;28;20176;-80
2023/03/10 04:09:34;;;;;;;6.72;4.20;;;;;;;9.25;100.00;98080.13;4976545;28;20046;-78
2023/03/10 04:12:02;;;;;;;8.45;3.60;;;;;;;9.25;100.00;98086.13;4976267;28;20129;-78
2023/03/10 04:14:29;;;;;;;8.13;3.30;;;;;;;9.22;100.00;98088.38;4977637;28;20082;-79
2023/03/10 04:16:56;;;;;;;7.53;3.00;;;;;;;9.26;100.00;98089.56;4980715;28;20058;-82
2023/03/10 04:19:22;;;;;;;9.20;3.13;;;;;;;9.23;100.00;98085.53;4985429;28;20114;-80
2023/03/10 04:21:49;;;;;;;11.60;3.08;;;;;;;9.23;100.00;98079.53;4984520;28;20142;-79
2023/03/10 04:24:15;;;;;;;11.63;3.15;;;;;;;9.20;100.00;98075.53;4985748;28;20070;-80
2023/03/10 04:26:42;;;;;;;13.30;2.90;;;;;;;9.16;100.00;98063.09;4983587;28;20097;-81
2023/03/10 04:29:10;;;;;;;8.10;3.20;;;;;;;9.13;100.00;98068.75;4983432;28;20126;-81
2023/03/10 04:31:37;;;;;;;9.52;2.85;;;;;;;9.11;100.00;98060.31;4986898;28;20089;-80
2023/03/10 04:34:04;;;;;;;9.80;3.05;;;;;;;9.08;100.00;98071.97;4984299;28;20078;-81
2023/03/10 04:36:31;;;;;;;7.82;3.42;;;;;;;9.02;100.00;98067.59;4978737;28;20082;-80
2023/03/10 04:38:58;;;;;;;7.80;2.40;;;;;;;9.03;100.00;98071.78;4980405;28;20081;-80
2023/03/10 04:41:27;;;;;;;8.68;3.00;;;;;;;8.97;100.00;98060.41;4980623;28;20142;-80
2023/03/10 04:43:54;;;;;;;8.32;2.70;;;;;;;8.97;100.00;98064.81;4980262;28;20089;-81
2023/03/10 04:46:22;;;;;;;7.78;2.88;;;;;;;8.92;100.00;98057.63;4979644;28;20133;-79
2023/03/10 04:48:49;;;;;;;6.60;2.20;;;;;;;8.88;100.00;98051.22;4977421;28;20585;-80
2023/03/10 04:51:15;;;;;;;7.25;2.90;;;;;;;8.88;100.00;98061.66;4976926;28;20130;-79
2023/03/10 04:53:42;;;;;;;4.80;2.40;;;;;;;8.76;100.00;98060.69;4978403;28;20124;-77
2023/03/10 04:56:09;;;;;;;8.27;2.38;;;;;;;8.64;100.00;98059.72;4979974;28;20089;-80
2023/03/10 04:58:36;;;;;;;6.00;2.42;;;;;;;8.56;100.00;98060.75;4979786;28;20065;-80
2023/03/10 05:01:07;;;;;;;5.55;2.90;;;;;;;8.61;100.00;98066.16;4980816;28;20485;-79
2023/03/10 05:03:36;;;;;;;7.93;2.83;;;;;;;8.59;100.00;98056.94;4986609;28;20070;-80
2023/03/10 05:06:02;;;;;;;6.13;2.28;;;;;;;8.55;100.00;98060.97;4991882;28;20053;-79
2023/03/10 05:08:29;;;;;;;4.93;2.13;;;;;;;8.56;100.00;98054.75;4986941;28;20051;-79
2023/03/10 05:10:55;;;;;;;6.72;2.00;;;;;;;8.50;100.00;98055.59;4984094;28;20496;-79
2023/03/10 05:13:22;;;;;;;8.25;2.60;;;;;;;8.55;100.00;98053.13;4979807;28;20501;-79
2023/03/10 05:15:49;;;;;;;8.05;2.40;;;;;;;8.46;100.00;98047.38;4979545;28;20086;-78
2023/03/10 05:18:15;;;;;;;5.53;2.40;;;;;;;8.48;100.00;98049.78;4981764;28;20125;-80
2023/03/10 05:20:43;;;;;;;6.72;2.45;;;;;;;8.48;100.00;98050.56;4984117;28;20097;-79
2023/03/10 05:23:10;;;;;;;4.45;2.40;;;;;;;8.44;100.00;98040.75;4982169;28;20473;-79
2023/03/10 05:25:36;;;;;;;7.90;2.33;;;;;;;8.43;100.00;98045.19;4984283;28;20062;-78
2023/03/10 05:28:03;;;;;;;5.57;2.35;;;;;;;8.47;100.00;98040.34;4987153;28;20062;-80
2023/03/10 05:30:30;;;;;;;6.40;2.75;;;;;;;8.43;100.00;98044.38;4986503;28;20081;-78
2023/03/10 05:32:56;;;;;;;5.40;2.90;;;;;;;8.42;100.00;98040.16;4982277;28;20051;-78
2023/03/10 05:35:23;;;;;;;9.02;3.10;;;;;;;8.39;100.00;98035.38;4981930;28;20458;-79
2023/03/10 05:37:51;;;;;;;10.27;3.92;;;;;;;8.43;100.00;98044.38;4981391;28;20373;-79
2023/03/10 05:40:19;;;;;;;10.35;3.45;;;;;;;8.46;100.00;98041.38;4973196;28;20043;-80
2023/03/10 05:42:46;;;;;;;7.05;3.30;;;;;;;8.44;100.00;98043.38;4979990;28;20047;-81
2023/03/10 05:45:13;;;;;;;6.40;3.40;;;;;;;8.42;100.00;98046.19;4981730;28;20051;-81
2023/03/10 05:47:40;;;;;;;8.43;3.28;;;;;;;8.42;100.00;98040.97;4981571;28;20283;-79
2023/03/10 05:50:07;;;;;;;12.43;3.53;;;;;;;8.46;100.00;98046.56;4981339;28;20548;-81
2023/03/10 05:52:37;;;;;;;9.63;4.13;;;;;;;8.46;100.00;98046.56;4981124;28;20078;-81
2023/03/10 05:55:07;;;;;;;12.35;4.05;;;;;;;8.43;100.00;98046.97;4979189;28;20284;-80
2023/03/10 05:57:33;;;;;;;10.70;4.00;;;;;;;8.44;100.00;98054.59;4980776;28;20112;-80
2023/03/10 06:00:00;;;;;;;12.82;3.90;;;;;;;8.46;100.00;98057.00;4979739;28;20327;-79
2023/03/10 06:02:27;;;;;;;11.20;3.55;;;;;;;8.46;100.00;98060.41;4981883;28;20561;-78
2023/03/10 06:04:53;;;;;;;10.45;3.78;;;;;;;8.49;100.00;98051.38;4983135;28;20133;-78
2023/03/10 06:07:20;;;;;;;10.68;3.83;;;;;;;8.43;100.00;98063.41;4980640;28;20074;-79
2023/03/10 06:09:47;;;;;;;9.95;3.83;;;;;;;8.49;100.00;98049.56;4978787;28;20082;-79
2023/03/10 06:12:15;;;;;;;9.48;3.67;;;;;;;8.47;100.00;98040.34;4976699;28;20117;-78
2023/03/10 06:14:41;;;;;;;16.15;4.20;;;;;;;8.47;100.00;98048.97;4978420;28;20564;-79
2023/03/10 06:17:08;;;;;;;17.42;4.90;;;;;;;8.48;100.00;98045.38;4978879;28;20109;-80
2023/03/10 06:19:34;;;;;;;14.27;4.35;;;;;;;8.51;100.00;98047.53;4981424;28;20051;-79
2023/03/10 06:22:01;;;;;;;12.75;4.10;;;;;;;8.49;100.00;98043.56;4983686;28;20077;-80
2023/03/10 06:24:28;;;;;;;11.38;4.10;;;;;;;8.55;100.00;98045.31;4983555;28;20054;-80
2023/03/10 06:26:55;;;;;;;11.80;4.50;;;;;;;8.57;100.00;98043.31;4980305;28;20082;-79
2023/03/10 06:29:22;;;;;;;13.82;4.47;;;;;;;8.55;100.00;98037.50;4977608;28;20174;-78
2023/03/10 06:31:49;;;;;;;14.13;4.85;;;;;;;8.52;100.00;98041.31;4979171;28;20057;-78
2023/03/10 06:34:16;;;;;;;12.63;4.80;;;;;;;8.53;100.00;98042.91;4978200;28;20074;-80
2023/03/10 06:36:42;;;;;;;12.32;4.90;;;;;;;8.56;100.00;98049.53;4985407;28;20138;-78
2023/03/10 06:39:09;;;;;;;11.98;4.35;;;;;;;8.60;100.00;98037.69;4980916;28;20051;-78
2023/03/10 06:41:37;;;;;;;18.67;5.35;;;;;;;8.64;100.00;98046.69;4980318;28;20081;-80
2023/03/10 06:44:04;;;;;;;13.57;4.55;;;;;;;8.68;100.00;98047.88;4976054;28;20065;-76
2023/03/10 06:46:32;;;;;;;12.25;4.40;;;;;;;8.71;100.00;98055.28;4975599;28;20054;-78
2023/03/10 06:48:59;;;;;;;9.13;3.92;;;;;;;8.76;100.00;98047.66;4976134;28;20165;-78
2023/03/10 06:51:25;;;;;;;10.48;4.53;;;;;;;8.78;100.00;98043.03;4975043;28;20038;-78
2023/03/10 06:53:53;;;;;;;13.60;4.43;;;;;;;8.72;100.00;98051.69;4974956;28;20125;-77
2023/03/10 06:56:22;;;;;;;14.23;6.35;;;;;;;8.73;100.00;98048.06;4974269;28;20042;-77
2023/03/10 06:58:49;;;;;;;16.73;8.80;;;;;;;8.82;100.00;98048.63;4975290;28;20061;-77
2023/03/10 07:01:21;;;;;;;12.32;7.15;;;;;;;8.96;100.00;98052.78;4985041;28;20070;-78
2023/03/10 07:03:49;;;;;;;14.65;5.18;;;;;;;9.05;100.00;98053.31;4982463;28;20053;-77
2023/03/10 07:06:16;;;;;;;18.17;10.13;;;;;;;9.11;100.00;98062.94;4979576;28;20089;-78
2023/03/10 07:08:43;;;;;;;21.55;13.52;;;;;;;9.22;100.00;98057.06;4976854;28;20043;-78
2023/03/10 07:11:10;;;;;;;27.25;15.35;;;;;;;9.21;100.00;98050.22;4969210;28;20075;-76
2023/03/10 07:13:37;;;;;;;28.92;20.30;;;;;;;9.29;100.00;98057.81;4971005;28;20130;-78
2023/03/10 07:16:04;;;;;;;13.05;8.43;;;;;;;9.30;100.00;98054.19;4968741;28;20101;-78
2023/03/10 07:18:31;;;;;;;15.05;6.95;;;;;;;9.36;100.00;98065.59;4974329;28;20133;-79
2023/03/10 07:20:59;;;;;;;12.13;7.32;;;;;;;9.44;100.00;98066.16;4970582;28;20039;-80
2023/03/10 07:23:26;;;;;;;5.20;3.53;;;;;;;9.46;100.00;98058.88;4972837;28;20473;-80
2023/03/10 07:25:54;;;;;;;15.23;7.60;;;;;;;9.49;100.00;98058.47;4975810;28;20078;-79
2023/03/10 07:28:21;;;;;;;10.45;5.30;;;;;;;9.56;100.00;98059.22;4976076;28;20051;-80
2023/03/10 07:30:49;;;;;;;15.35;5.30;;;;;;;9.67;100.00;98056.94;4973328;28;20046;-78
2023/03/10 07:33:15;;;;;;;7.53;4.78;;;;;;;9.78;100.00;98056.25;4975488;28;20170;-82
2023/03/10 07:35:42;;;;;;;7.88;4.45;;;;;;;9.88;100.00;98061.81;4977160;28;20057;-80
2023/03/10 07:38:10;;;;;;;11.68;9.15;;;;;;;9.92;100.00;98053.31;4966075;28;20078;-81
2023/03/10 07:40:39;;;;;;;12.90;7.22;;;;;;;9.93;100.00;98062.75;4974302;28;20074;-80
2023/03/10 07:43:05;;;;;;;21.83;13.90;;;;;;;9.91;100.00;98071.84;4971426;28;20049;-77
2023/03/10 07:45:33;;;;;;;16.90;10.07;;;;;;;10.01;100.00;98079.16;4974458;28;20137;-78
2023/03/10 07:48:00;;;;;;;11.68;4.70;;;;;;;10.18;100.00;98081.03;4974365;28;20086;-78
2023/03/10 07:50:27;;;;;;;6.65;2.85;;;;;;;10.11;100.00;98076.88;4973347;28;20074;-77
2023/03/10 07:52:54;;;;;;;18.27;13.57;;;;;;;10.17;100.00;98076.81;4975096;28;20130;-79
2023/03/10 07:55:22;;;;;;;9.18;5.40;;;;;;;10.36;100.00;98069.03;4976509;28;20054;-78
2023/03/10 07:57:49;;;;;;;10.43;4.20;;;;;;;10.38;100.00;98067.81;4980621;28;20099;-78
2023/03/10 08:00:17;;;;;;;26.10;6.40;;;;;;;10.42;100.00;98073.38;4980846;28;20086;-81
2023/03/10 08:02:43;;;;;;;10.00;3.15;;;;;;;10.34;100.00;98078.91;4982327;28;20078;-79
2023/03/10 08:05:13;;;;;;;4.60;2.67;;;;;;;10.25;100.00;98086.22;4982436;28;20097;-80
2023/03/10 08:07:40;;;;;;;6.72;3.03;;;;;;;10.24;100.00;98077.59;4981294;28;20054;-78
2023/03/10 08:10:07;;;;;;;10.05;3.42;;;;;;;10.26;100.00;98087.81;4981285;28;20548;-82
2023/03/10 08:12:35;;;;;;;6.28;3.20;;;;;;;10.32;100.00;98094.81;4982411;28;20078;-80
2023/03/10 08:15:02;;;;;;;6.95;3.08;;;;;;;10.35;100.00;98088.34;4982158;28;20549;-80
2023/03/10 08:17:34;;;;;;;11.52;3.80;;;;;;;10.43;100.00;98095.88;4981488;28;20050;-80
2023/03/10 08:20:02;;;;;;;7.93;3.63;;;;;;;10.49;100.00;98084.56;4982533;28;20153;-80
2023/03/10 08:22:28;;;;;;;6.50;3.17;;;;;;;10.68;100.00;98088.00;4984515;28;20426;-80
2023/03/10 08:24:55;;;;;;;7.80;3.17;;;;;;;10.73;99.39;98086.31;4985157;28;20074;-79
2023/03/10 08:27:25;;;;;;;6.63;3.08;;;;;;;11.22;98.47;98090.53;4985982;28;20055;-81
2023/03/10 08:29:53;;;;;;;6.10;2.72;;;;;;;11.49;96.06;98096.19;4984535;28;20066;-79
2023/03/10 08:32:20;;;;;;;10.88;3.70;;;;;;;11.85;94.25;98089.25;4985810;28;20413;-77
2023/03/10 08:34:46;;;;;;;11.65;3.78;;;;;;;11.86;92.70;98075.13;4986029;28;20050;-79
2023/03/10 08:37:13;;;;;;;12.07;4.05;;;;;;;11.79;92.63;98090.16;4986448;28;20536;-81
2023/03/10 08:39:39;;;;;;;11.30;5.03;;;;;;;12.01;91.87;98093.81;4988116;28;20086;-79
2023/03/10 08:42:06;;;;;;;14.52;4.13;;;;;;;11.93;91.65;98083.66;4985823;28;20507;-80
2023/03/10 08:44:33;;;;;;;12.27;4.55;;;;;;;11.95;91.27;98084.25;4985320;28;20110;-79
2023/03/10 08:47:04;;;;;;;12.77;4.25;;;;;;;11.89;91.33;98085.16;4976605;28;20051;-79
2023/03/10 08:49:30;;;;;;;9.15;6.03;;;;;;;11.97;90.74;98076.94;4984375;28;20115;-82
2023/03/10 08:51:58;;;;;;;10.82;4.22;;;;;;;12.10;90.38;98079.38;4983249;28;20077;-82
2023/03/10 08:54:24;;;;;;;8.68;4.18;;;;;;;12.02;90.40;98082.31;4985968;28;20066;-79
2023/03/10 08:56:51;;;;;;;10.95;4.78;;;;;;;12.01;89.65;98083.34;4984810;28;20110;-80
2023/03/10 08:59:18;;;;;;;14.90;4.43;;;;;;;12.33;89.42;98080.38;4984032;28;20081;-80
2023/03/10 09:01:45;;;;;;;7.93;3.35;;;;;;;12.45;89.32;98073.28;4983619;28;20156;-80
2023/03/10 09:04:13;;;;;;;25.98;4.30;;;;;;;12.53;89.29;98083.44;4983729;28;20129;-80
2023/03/10 09:06:40;;;;;;;13.90;3.70;;;;;;;12.40;88.89;98078.44;4982569;28;20138;-80
2023/03/10 09:09:08;;;;;;;11.77;3.85;;;;;;;12.55;88.54;98089.25;4983359;28;20118;-79
2023/03/10 09:11:37;;;;;;;11.60;3.38;;;;;;;12.44;88.39;98097.94;4981992;28;20117;-81
2023/03/10 09:14:04;;;;;;;9.73;3.30;;;;;;;12.34;88.16;98095.06;4979363;28;20454;-79
2023/03/10 09:16:31;;;;;;;7.95;3.08;;;;;;;12.40;88.44;98097.59;4974774;28;20137;-80
2023/03/10 09:18:59;;;;;;;10.63;3.80;;;;;;;12.38;87.65;98093.59;4981338;28;20118;-79
2023/03/10 09:21:30;;;;;;;11.40;3.53;;;;;;;12.37;87.34;98097.25;4981634;28;20050;-80
2023/03/10 09:23:56;;;;;;;12.70;3.70;;;;;;;12.44;86.83;98090.84;4981536;28;20062;-80
2023/03/10 09:26:23;;;;;;;5.90;3.25;;;;;;;12.39;86.75;98092.56;4981755;28;20480;-78
2023/03/10 09:28:50;;;;;;;8.45;2.70;;;;;;;12.58;86.87;98086.16;4980677;28;20129;-81
2023/03/10 09:31:19;;;;;;;12.68;3.25;;;;;;;12.82;86.31;98090.34;4976274;28;20119;-81
2023/03/10 09:33:45;;;;;;;11.23;3.30;;;;;;;12.99;85.27;98089.59;4976053;28;20082;-81
2023/03/10 09:36:12;;;;;;;12.43;3.40;;;;;;;13.02;84.28;98083.91;4978939;28;20082;-79
2023/03/10 09:38:41;;;;;;;9.40;3.22;;;;;;;13.05;84.65;98084.22;4978240;28;20129;-79
2023/03/10 09:41:31;;;;;;;13.18;3.38;;;;;;;13.11;85.40;98093.78;4976877;28;20055;-80
2023/03/10 09:44:03;;;;;;;9.43;3.40;;;;;;;12.91;85.04;98086.31;4969657;28;20047;-79
2023/03/10 09:46:38;;;;;;;8.80;2.95;;;;;;;13.37;84.96;98078.53;4977872;28;20043;-77
2023/03/10 09:49:14;;;;;;;12.35;3.58;;;;;;;13.53;83.45;98073.31;4978620;28;20134;-79
2023/03/10 09:51:45;;;;;;;14.25;3.00;;;;;;;13.38;81.84;98065.16;4979035;28;20057;-81
2023/03/10 09:54:27;;;;;;;7.70;3.05;;;;;;;13.22;82.34;98065.94;4978014;28;20055;-79
2023/03/10 09:56:56;;;;;;;8.13;2.70;;;;;;;13.13;82.74;98064.69;4976499;28;20057;-80
2023/03/10 09:59:30;;;;;;;8.27;3.00;;;;;;;13.35;82.14;98070.09;4977285;28;20135;-80
2023/03/10 10:01:59;;;;;;;10.55;3.13;;;;;;;13.48;81.48;98070.59;4976724;28;20469;-79
2023/03/10 10:04:31;;;;;;;7.82;2.78;;;;;;;13.63;81.39;98075.31;4986165;28;20164;-81
2023/03/10 10:06:59;;;;;;;8.68;3.15;;;;;;;13.64;81.66;98070.84;4987833;28;20075;-82
2023/03/10 10:09:40;;;;;;;10.02;3.15;;;;;;;14.05;80.90;98070.47;4994726;28;20057;-82
2023/03/10 10:12:11;;;;;;;10.85;3.80;;;;;;;13.99;80.03;98062.72;4992459;28;20109;-80
2023/03/10 10:14:38;;;;;;;7.00;2.70;;;;;;;14.01;79.25;98056.19;4981214;28;20089;-81
2023/03/10 10:17:14;;;;;;;8.65;2.38;;;;;;;13.70;78.84;98052.31;4979618;28;20074;-79
2023/03/10 10:19:41;;;;;;;10.55;2.97;;;;;;;13.84;78.34;98061.44;4981160;28;20134;-80
2023/03/10 10:22:17;;;;;;;7.80;2.38;;;;;;;13.99;78.61;98062.72;4978290;28;20186;-79
2023/03/10 10:24:58;;;;;;;8.05;2.83;;;;;;;14.08;77.85;98062.09;4979395;28;20588;-80
2023/03/10 10:27:25;;;;;;;5.95;2.60;;;;;;;13.86;76.40;98050.69;4980104;28;20437;-79
2023/03/10 10:29:52;;;;;;;6.55;2.58;;;;;;;14.08;76.14;98064.72;4979561;28;20201;-82
2023/03/10 10:32:19;;;;;;;4.35;2.10;;;;;;;14.16;76.91;98066.16;4979601;28;20053;-80
2023/03/10 10:34:48;;;;;;;6.70;2.70;;;;;;;13.87;76.58;98065.44;4978571;28;20057;-82
2023/03/10 10:37:27;;;;;;;3.92;2.33;;;;;;;13.57;77.61;98077.06;4979054;28;20053;-81
2023/03/10 10:39:57;;;;;;;7.38;2.72;;;;;;;13.32;77.91;98076.59;4979119;28;20074;-83
2023/03/10 10:42:25;;;;;;;5.38;2.50;;;;;;;13.20;79.15;98078.50;4982186;28;20070;-81
2023/03/10 10:44:54;;;;;;;3.63;2.08;;;;;;;13.00;80.08;98075.44;4979238;28;20074;-81
2023/03/10 10:47:32;;;;;;;3.40;2.28;;;;;;;12.69;80.63;98085.34;4980095;28;20142;-82
2023/03/10 10:50:16;;;;;;;5.30;2.10;;;;;;;12.31;82.27;98091.09;4979507;28;20061;-81
2023/03/10 10:52:49;;;;;;;6.55;2.60;;;;;;;12.20;85.19;98112.88;4980448;28;20047;-82
2023/03/10 10:55:33;;;;;;;4.60;2.35;;;;;;;11.96;87.99;98114.66;4980794;28;20070;-81
2023/03/10 10:58:02;;;;;;;5.90;2.90;;;;;;;11.92;89.32;98106.47;4982966;28;20054;-82
2023/03/10 11:00:31;;;;;;;6.65;2.63;;;;;;;11.99;89.76;98103.72;4984010;28;20050;-81
2023/03/10 11:03:18;;;;;;;7.97;2.50;;;;;;;11.94;90.54;98101.78;4979119;28;20061;-81
2023/03/10 11:05:44;;;;;;;5.80;2.55;;;;;;;12.05;91.38;98105.44;4979075;28;20082;-81
2023/03/10 11:08:19;;;;;;;5.63;1.98;;;;;;;12.14;91.99;98103.31;4977096;28;20051;-80
2023/03/10 11:10:54;;;;;;;6.30;2.38;;;;;;;11.87;92.14;98093.22;4978521;28;20093;-81
2023/03/10 11:13:27;;;;;;;7.35;3.08;;;;;;;11.65;92.81;98094.78;4979725;28;20125;-80
2023/03/10 11:15:59;;;;;;;4.20;2.03;;;;;;;11.25;94.47;98090.09;4979768;28;20054;-81
2023/03/10 11:18:34;;;;;;;4.05;2.00;;;;;;;11.27;95.40;98095.91;4971119;28;20497;-80
2023/03/10 11:21:12;;;;;;;6.30;2.10;;;;;;;11.22;95.57;98085.31;4977800;28;20059;-80
2023/03/10 11:23:56;;;;;;;4.63;2.05;;;;;;;11.21;96.43;98093.38;4977877;28;20054;-81
2023/03/10 11:26:37;;;;;;;5.30;2.17;;;;;;;11.34;96.67;98095.84;4977632;28;20050;-82
2023/03/10 11:29:19;;;;;;;5.15;2.20;;;;;;;11.45;97.35;98094.25;4978190;28;20058;-81
2023/03/10 11:31:58;;;;;;;6.70;2.88;;;;;;;11.39;97.83;98095.94;4977864;28;20517;-82
2023/03/10 11:34:30;;;;;;;4.68;2.70;;;;;;;11.20;97.41;98091.78;4977394;28;20054;-82
2023/03/10 11:37:05;;;;;;;6.10;3.63;;;;;;;11.11;98.19;98082.63;4977322;28;20425;-81